Time;durP1;ratioP1;P1;durP2;ratioP2;P2;SDS_P1;SDS_P2;PMS_P1;PMS_P2;Temp;Humidity;BMP_temperature;BMP_pressure;BME280_temperature;BME280_humidity;BME280_pressure;Samples;Min_cycle;Max_cycle;Signal;HPM_P1;HPM_P2
2022/09/10 00:02:08;;;;;;;1.45;1.30;;;16.30;99.90;;;;;;5092277;28;20028;-75
2022/09/10 00:04:34;;;;;;;1.60;1.42;;;16.30;99.90;;;;;;5090985;28;20032;-74
2022/09/10 00:07:00;;;;;;;1.42;1.33;;;16.30;99.90;;;;;;5092236;28;20016;-74
2022/09/10 00:09:25;;;;;;;3.65;1.30;;;16.20;99.90;;;;;;5092139;28;20363;-74
2022/09/10 00:11:51;;;;;;;2.30;1.17;;;16.30;99.90;;;;;;5092231;28;20430;-75
2022/09/10 00:14:22;;;;;;;1.70;1.15;;;16.30;99.90;;;;;;5092111;28;20084;-73
2022/09/10 00:16:48;;;;;;;2.25;1.05;;;16.40;99.90;;;;;;5092325;28;20398;-73
2022/09/10 00:19:14;;;;;;;4.05;1.40;;;16.40;99.90;;;;;;5091645;28;20055;-75
2022/09/10 00:21:40;;;;;;;1.15;1.05;;;16.40;99.90;;;;;;5092116;28;20034;-75
2022/09/10 00:24:06;;;;;;;1.10;1.00;;;16.40;99.90;;;;;;5092408;28;20052;-73
2022/09/10 00:26:39;;;;;;;1.38;1.10;;;16.40;99.90;;;;;;5092095;28;20063;-73
2022/09/10 00:29:10;;;;;;;3.03;1.17;;;16.40;99.90;;;;;;5093102;28;20020;-73
2022/09/10 00:31:36;;;;;;;1.95;1.10;;;16.40;99.90;;;;;;5096243;28;20028;-73
2022/09/10 00:34:03;;;;;;;1.38;0.90;;;16.40;99.90;;;;;;5095137;28;20034;-74
2022/09/10 00:36:32;;;;;;;2.40;1.42;;;16.40;99.90;;;;;;5096001;28;20378;-75
2022/09/10 00:39:01;;;;;;;1.15;1.15;;;16.30;99.90;;;;;;5096171;28;20063;-74
2022/09/10 00:41:27;;;;;;;1.33;1.20;;;16.30;99.90;;;;;;5096041;28;20020;-76
2022/09/10 00:43:56;;;;;;;1.08;1.00;;;16.40;99.90;;;;;;5096052;28;20028;-73
2022/09/10 00:46:31;;;;;;;0.95;0.95;;;16.30;99.90;;;;;;5096019;28;20020;-74
2022/09/10 00:49:00;;;;;;;2.60;1.17;;;16.30;99.90;;;;;;5095805;28;20081;-76
2022/09/10 00:51:29;;;;;;;1.02;1.00;;;16.30;99.90;;;;;;5096113;28;20020;-73
2022/09/10 00:53:56;;;;;;;2.47;0.93;;;16.30;99.90;;;;;;5095819;28;20012;-74
2022/09/10 00:56:22;;;;;;;1.80;1.55;;;16.30;99.90;;;;;;5095744;28;20039;-74
2022/09/10 00:58:48;;;;;;;3.15;1.50;;;16.30;99.90;;;;;;5094481;28;20032;-74
2022/09/10 01:01:14;;;;;;;2.03;1.27;;;16.20;99.90;;;;;;5094358;28;20038;-73
2022/09/10 01:03:43;;;;;;;2.13;1.15;;;16.20;99.90;;;;;;5094176;28;20024;-73
2022/09/10 01:06:09;;;;;;;1.10;1.00;;;16.20;99.90;;;;;;5095610;28;20395;-73
2022/09/10 01:08:35;;;;;;;1.30;1.17;;;16.20;99.90;;;;;;5095395;28;20459;-73
2022/09/10 01:11:19;;;;;;;1.38;1.10;;;16.10;99.90;;;;;;5095421;28;20032;-74
2022/09/10 01:13:51;;;;;;;1.13;1.02;;;16.10;99.90;;;;;;5094106;28;20042;-74
2022/09/10 01:16:33;;;;;;;6.63;1.50;;;16.10;99.90;;;;;;5094030;28;20028;-72
2022/09/10 01:19:40;;;;;;;1.30;1.17;;;16.10;99.90;;;;;;5095254;28;20085;-74
2022/09/10 01:22:33;;;;;;;1.60;0.98;;;16.00;99.90;;;;;;5093014;28;20514;-72
2022/09/10 01:25:39;;;;;;;1.83;1.40;;;16.00;99.90;;;;;;5093144;28;20043;-74
2022/09/10 01:28:13;;;;;;;1.73;1.20;;;15.90;99.90;;;;;;5094951;28;20067;-72
2022/09/10 01:30:47;;;;;;;5.22;1.20;;;15.90;99.90;;;;;;5095284;28;20039;-75
2022/09/10 01:33:30;;;;;;;0.85;0.82;;;15.80;99.90;;;;;;5095040;28;20011;-73
2022/09/10 01:36:00;;;;;;;1.88;1.10;;;15.80;99.90;;;;;;5094813;28;20579;-73
2022/09/10 01:38:34;;;;;;;3.20;1.50;;;15.80;99.90;;;;;;5094935;28;20379;-74
2022/09/10 01:41:01;;;;;;;5.07;1.25;;;15.80;99.90;;;;;;5094168;28;20024;-74
2022/09/10 01:43:27;;;;;;;1.23;0.93;;;15.80;99.90;;;;;;5094920;28;20023;-73
2022/09/10 01:46:12;;;;;;;1.77;1.30;;;15.70;99.90;;;;;;5093424;28;20021;-74
2022/09/10 01:48:46;;;;;;;2.53;1.50;;;15.70;99.90;;;;;;5094824;28;20352;-73
2022/09/10 01:51:57;;;;;;;3.15;1.13;;;15.70;99.90;;;;;;5095013;28;20421;-73
2022/09/10 01:54:53;;;;;;;1.67;1.15;;;15.70;99.90;;;;;;5092402;28;20034;-75
2022/09/10 01:57:47;;;;;;;2.58;1.10;;;15.70;99.90;;;;;;5094478;28;20032;-74
2022/09/10 02:00:17;;;;;;;2.08;1.08;;;15.70;99.90;;;;;;5094585;28;20020;-73
2022/09/10 02:03:15;;;;;;;1.83;1.17;;;15.70;99.90;;;;;;5094551;28;20023;-76
2022/09/10 02:05:43;;;;;;;1.85;0.90;;;15.70;99.90;;;;;;5094464;28;20471;-74
2022/09/10 02:08:16;;;;;;;3.80;1.40;;;15.70;99.90;;;;;;5094198;28;20032;-75
2022/09/10 02:10:58;;;;;;;3.85;1.30;;;15.70;99.90;;;;;;5093412;28;20441;-75
2022/09/10 02:13:24;;;;;;;2.70;1.00;;;15.70;99.90;;;;;;5094349;28;20485;-73
2022/09/10 02:15:53;;;;;;;1.58;1.48;;;15.70;99.90;;;;;;5094346;28;20047;-73
2022/09/10 02:18:20;;;;;;;0.90;0.90;;;15.70;99.90;;;;;;5093942;28;20024;-75
2022/09/10 02:20:48;;;;;;;3.42;1.27;;;15.70;99.90;;;;;;5092900;28;20036;-73
2022/09/10 02:23:17;;;;;;;3.30;1.30;;;15.70;99.90;;;;;;5092851;28;20110;-73
2022/09/10 02:25:43;;;;;;;1.20;1.10;;;15.70;99.90;;;;;;5094100;28;20112;-73
2022/09/10 02:28:09;;;;;;;6.47;1.80;;;15.60;99.90;;;;;;5094181;28;20153;-74
2022/09/10 02:30:35;;;;;;;3.13;1.13;;;15.60;99.90;;;;;;5094009;28;20107;-74
2022/09/10 02:33:01;;;;;;;1.70;1.13;;;15.60;99.90;;;;;;5094026;28;20024;-73
2022/09/10 02:35:27;;;;;;;1.40;1.30;;;15.60;99.90;;;;;;5093999;28;20158;-74
2022/09/10 02:37:53;;;;;;;5.65;1.55;;;15.60;99.90;;;;;;5093725;28;20456;-74
2022/09/10 02:40:18;;;;;;;1.27;1.17;;;15.60;99.90;;;;;;5094057;28;20018;-75
2022/09/10 02:42:45;;;;;;;1.33;1.23;;;15.60;99.90;;;;;;5093736;28;20036;-76
2022/09/10 02:45:12;;;;;;;2.45;1.42;;;15.60;99.90;;;;;;5093758;28;20024;-75
2022/09/10 02:47:38;;;;;;;1.40;1.30;;;15.60;99.90;;;;;;5093567;28;20096;-74
2022/09/10 02:50:05;;;;;;;2.15;1.70;;;15.50;99.90;;;;;;5093924;28;20074;-74
2022/09/10 02:52:32;;;;;;;2.63;1.20;;;15.50;99.90;;;;;;5093654;28;20486;-74
2022/09/10 02:54:58;;;;;;;5.47;1.50;;;15.50;99.90;;;;;;5092441;28;20360;-73
2022/09/10 02:57:25;;;;;;;2.00;1.45;;;15.50;99.90;;;;;;5093607;28;20111;-74
2022/09/10 02:59:52;;;;;;;3.05;1.58;;;15.40;99.90;;;;;;5092336;28;20122;-72
2022/09/10 03:02:19;;;;;;;2.80;1.42;;;15.40;99.90;;;;;;5093607;28;20103;-73
2022/09/10 03:04:44;;;;;;;2.47;1.38;;;15.40;99.90;;;;;;5092221;28;20036;-73
2022/09/10 03:07:10;;;;;;;5.30;1.60;;;15.30;99.90;;;;;;5093347;28;20028;-76
2022/09/10 03:09:39;;;;;;;1.70;1.58;;;15.30;99.90;;;;;;5092171;28;20061;-73
2022/09/10 03:12:05;;;;;;;3.65;1.33;;;15.30;99.90;;;;;;5093324;28;20031;-75
2022/09/10 03:14:31;;;;;;;2.03;1.33;;;15.20;99.90;;;;;;5093256;28;20028;-74
2022/09/10 03:16:57;;;;;;;4.18;1.10;;;15.20;99.90;;;;;;5093087;28;20038;-75
2022/09/10 03:19:23;;;;;;;5.35;1.50;;;15.10;99.90;;;;;;5092969;28;20036;-75
2022/09/10 03:21:48;;;;;;;2.50;1.42;;;15.10;99.90;;;;;;5093303;28;20028;-73
2022/09/10 03:24:14;;;;;;;1.63;1.52;;;15.00;99.90;;;;;;5093081;28;20130;-74
2022/09/10 03:26:40;;;;;;;1.38;1.13;;;15.00;99.90;;;;;;5093184;28;20027;-73
2022/09/10 03:29:05;;;;;;;5.57;1.60;;;14.90;99.90;;;;;;5091814;28;20027;-73
2022/09/10 03:31:31;;;;;;;1.77;1.35;;;14.90;99.90;;;;;;5093070;28;20028;-73
2022/09/10 03:33:58;;;;;;;6.57;2.72;;;14.90;99.90;;;;;;5093116;28;20049;-76
2022/09/10 03:36:28;;;;;;;5.07;2.25;;;14.90;99.90;;;;;;5092859;28;20089;-76
2022/09/10 03:38:53;;;;;;;1.60;1.50;;;14.90;99.90;;;;;;5092937;28;20039;-74
2022/09/10 03:41:19;;;;;;;1.20;1.13;;;14.90;99.90;;;;;;5092997;28;20016;-76
2022/09/10 03:43:45;;;;;;;2.42;1.42;;;14.80;99.90;;;;;;5091632;28;20175;-74
2022/09/10 03:46:13;;;;;;;2.65;1.80;;;14.80;99.90;;;;;;5092820;28;20026;-74
2022/09/10 03:48:38;;;;;;;4.22;1.67;;;14.70;99.90;;;;;;5091226;28;20016;-73
2022/09/10 03:51:04;;;;;;;6.85;1.63;;;14.70;99.90;;;;;;5091498;28;20032;-74
2022/09/10 03:53:30;;;;;;;2.53;1.58;;;14.60;99.90;;;;;;5091670;28;20148;-74
2022/09/10 03:55:55;;;;;;;1.80;1.40;;;14.60;99.90;;;;;;5092600;28;20058;-73
2022/09/10 03:58:21;;;;;;;1.75;1.63;;;14.60;99.90;;;;;;5092691;28;20024;-73
2022/09/10 04:00:47;;;;;;;3.92;1.85;;;14.60;99.90;;;;;;5092647;28;20471;-75
2022/09/10 04:03:15;;;;;;;1.88;1.33;;;14.60;99.90;;;;;;5092454;28;20419;-74
2022/09/10 04:05:44;;;;;;;1.85;1.60;;;14.50;99.90;;;;;;5092246;28;20051;-74
2022/09/10 04:08:11;;;;;;;1.60;1.50;;;14.50;99.90;;;;;;5092423;28;20095;-73
2022/09/10 04:10:38;;;;;;;1.77;1.60;;;14.40;99.90;;;;;;5092541;28;20031;-73
2022/09/10 04:13:05;;;;;;;3.55;2.05;;;14.40;99.90;;;;;;5092360;28;20020;-73
2022/09/10 04:15:30;;;;;;;3.25;2.42;;;14.40;99.90;;;;;;5092278;28;20089;-74
2022/09/10 04:17:56;;;;;;;2.65;1.58;;;14.40;99.90;;;;;;5092267;28;20020;-73
2022/09/10 04:20:22;;;;;;;1.75;1.50;;;14.40;99.90;;;;;;5092104;28;20495;-73
2022/09/10 04:22:50;;;;;;;2.70;2.10;;;14.40;99.90;;;;;;5091097;28;20517;-75
2022/09/10 04:25:16;;;;;;;6.38;2.35;;;14.30;99.90;;;;;;5092205;28;20392;-74
2022/09/10 04:27:42;;;;;;;4.22;2.17;;;14.30;99.90;;;;;;5092179;28;20024;-75
2022/09/10 04:30:08;;;;;;;3.42;1.85;;;14.20;99.90;;;;;;5092277;28;20408;-74
2022/09/10 04:32:34;;;;;;;2.13;1.88;;;14.20;99.90;;;;;;5091979;28;20166;-75
2022/09/10 04:35:03;;;;;;;3.97;1.80;;;14.20;99.90;;;;;;5092093;28;20107;-73
2022/09/10 04:37:29;;;;;;;2.30;2.13;;;14.10;99.90;;;;;;5092074;28;20036;-78
2022/09/10 04:39:55;;;;;;;3.90;1.70;;;14.10;99.90;;;;;;5092324;28;20024;-78
2022/09/10 04:42:21;;;;;;;1.75;1.50;;;14.00;99.90;;;;;;5092212;28;20020;-73
2022/09/10 04:44:47;;;;;;;1.65;1.40;;;14.00;99.90;;;;;;5092160;28;20032;-73
2022/09/10 04:47:14;;;;;;;3.83;1.27;;;14.00;99.90;;;;;;5090843;28;20027;-75
2022/09/10 04:49:39;;;;;;;5.75;1.50;;;14.00;99.90;;;;;;5092027;28;20055;-74
2022/09/10 04:52:05;;;;;;;6.72;1.73;;;14.00;99.90;;;;;;5092030;28;20112;-74
2022/09/10 04:54:32;;;;;;;1.73;1.20;;;13.90;99.90;;;;;;5092012;28;20032;-76
2022/09/10 04:56:59;;;;;;;2.25;1.73;;;13.90;99.90;;;;;;5091929;28;20024;-76
2022/09/10 04:59:26;;;;;;;3.03;1.55;;;13.90;99.90;;;;;;5091959;28;20028;-75
2022/09/10 05:01:52;;;;;;;6.72;2.22;;;14.00;99.90;;;;;;5091873;28;20106;-74
2022/09/10 05:04:18;;;;;;;7.60;3.90;;;13.90;99.90;;;;;;5090666;28;20107;-73
2022/09/10 05:06:44;;;;;;;10.35;1.83;;;14.00;99.90;;;;;;5090549;28;20078;-74
2022/09/10 05:09:10;;;;;;;2.50;1.27;;;14.00;99.90;;;;;;5091836;28;20030;-74
2022/09/10 05:11:36;;;;;;;1.88;1.35;;;13.90;99.90;;;;;;5092406;28;20024;-74
2022/09/10 05:14:02;;;;;;;4.95;1.40;;;13.90;99.90;;;;;;5091821;28;20471;-74
2022/09/10 05:16:27;;;;;;;1.55;1.45;;;14.30;99.90;;;;;;5097515;28;20542;-75
2022/09/10 05:18:53;;;;;;;2.72;2.28;;;14.30;99.90;;;;;;5093949;28;20047;-75
2022/09/10 05:21:19;;;;;;;25.75;14.77;;;14.20;99.90;;;;;;5094236;28;20028;-75
2022/09/10 05:23:44;;;;;;;10.15;5.70;;;14.10;99.90;;;;;;5095536;28;20100;-74
2022/09/10 05:26:10;;;;;;;4.18;3.00;;;14.10;99.90;;;;;;5094020;28;20016;-75
2022/09/10 05:28:36;;;;;;;3.97;2.00;;;14.10;99.90;;;;;;5095264;28;20028;-75
2022/09/10 05:31:02;;;;;;;5.72;2.55;;;14.10;99.90;;;;;;5095329;28;20089;-74
2022/09/10 05:33:28;;;;;;;3.40;2.60;;;14.10;99.90;;;;;;5095278;28;20076;-74
2022/09/10 05:35:53;;;;;;;3.10;2.53;;;14.10;99.90;;;;;;5096930;28;20032;-77
2022/09/10 05:38:19;;;;;;;4.03;2.00;;;14.10;99.90;;;;;;5095162;28;20178;-73
2022/09/10 05:40:45;;;;;;;3.13;2.30;;;14.10;99.90;;;;;;5095371;28;20024;-75
2022/09/10 05:43:11;;;;;;;4.90;2.95;;;14.20;99.90;;;;;;5095347;28;20524;-75
2022/09/10 05:45:36;;;;;;;3.10;2.60;;;14.20;99.90;;;;;;5095237;28;20047;-74
2022/09/10 05:48:02;;;;;;;1.75;1.65;;;14.30;99.90;;;;;;5095043;28;20479;-74
2022/09/10 05:50:29;;;;;;;4.72;2.15;;;14.30;99.90;;;;;;5095216;28;20056;-73
2022/09/10 05:52:55;;;;;;;3.55;2.67;;;14.40;99.90;;;;;;5095015;28;20016;-75
2022/09/10 05:55:21;;;;;;;5.18;2.25;;;14.40;99.90;;;;;;5094996;28;20042;-74
2022/09/10 05:57:47;;;;;;;2.60;2.15;;;14.50;99.90;;;;;;5094851;28;20028;-74
2022/09/10 06:00:14;;;;;;;2.95;1.90;;;14.60;99.90;;;;;;5094973;28;20024;-73
2022/09/10 06:02:40;;;;;;;2.42;1.65;;;14.60;99.90;;;;;;5094431;28;20026;-73
2022/09/10 06:05:07;;;;;;;3.13;1.88;;;14.70;99.90;;;;;;5094293;28;20031;-74
2022/09/10 06:07:32;;;;;;;1.88;1.75;;;14.80;99.90;;;;;;5093445;28;20070;-74
2022/09/10 06:09:59;;;;;;;3.92;2.10;;;14.80;99.90;;;;;;5094739;28;20060;-73
2022/09/10 06:12:25;;;;;;;1.63;1.52;;;14.90;99.90;;;;;;5094653;28;20028;-74
2022/09/10 06:14:51;;;;;;;3.72;2.00;;;15.00;99.90;;;;;;5094576;28;20050;-74
2022/09/10 06:17:17;;;;;;;2.25;1.50;;;15.10;99.90;;;;;;5094348;28;20386;-75
2022/09/10 06:19:44;;;;;;;1.67;1.58;;;15.20;99.90;;;;;;5094356;28;20536;-75
2022/09/10 06:22:11;;;;;;;2.88;1.73;;;15.30;99.90;;;;;;5094450;28;20036;-75
2022/09/10 06:24:37;;;;;;;3.72;1.50;;;15.40;99.90;;;;;;5093384;28;20105;-75
2022/09/10 06:27:04;;;;;;;5.63;1.92;;;15.50;99.90;;;;;;5092440;28;20467;-75
2022/09/10 06:29:31;;;;;;;5.15;2.00;;;15.60;99.90;;;;;;5092943;28;20027;-75
2022/09/10 06:31:58;;;;;;;5.15;2.83;;;15.70;99.90;;;;;;5094312;28;20023;-73
2022/09/10 06:34:24;;;;;;;2.17;1.88;;;15.80;99.90;;;;;;5094175;28;20024;-75
2022/09/10 06:36:50;;;;;;;2.30;1.30;;;15.90;99.90;;;;;;5094036;28;20067;-74
2022/09/10 06:39:16;;;;;;;4.40;2.47;;;16.00;99.90;;;;;;5094028;28;20471;-76
2022/09/10 06:41:42;;;;;;;1.80;1.70;;;16.10;99.90;;;;;;5093569;28;20023;-75
2022/09/10 06:44:09;;;;;;;0.65;0.65;;;16.20;99.90;;;;;;5094133;28;20069;-74
2022/09/10 06:46:35;;;;;;;1.60;1.17;;;16.30;99.90;;;;;;5094055;28;20035;-72
2022/09/10 06:49:03;;;;;;;1.80;0.73;;;16.40;99.90;;;;;;5093899;28;20020;-73
2022/09/10 06:51:29;;;;;;;1.95;0.80;;;16.50;99.90;;;;;;5094709;28;20028;-72
2022/09/10 06:53:55;;;;;;;1.67;0.90;;;16.60;99.90;;;;;;5093344;28;20031;-72
2022/09/10 06:56:21;;;;;;;1.52;0.90;;;16.80;99.90;;;;;;5094392;28;20047;-74
2022/09/10 06:58:47;;;;;;;1.33;1.23;;;16.90;99.90;;;;;;5094259;28;20066;-73
2022/09/10 07:01:18;;;;;;;6.95;2.65;;;17.00;99.90;;;;;;5094640;28;20051;-76
2022/09/10 07:03:45;;;;;;;1.38;1.15;;;17.10;99.90;;;;;;5093506;28;20034;-72
2022/09/10 07:06:15;;;;;;;1.33;1.00;;;17.20;99.90;;;;;;5094411;28;20476;-73
2022/09/10 07:08:41;;;;;;;1.55;0.70;;;17.40;99.90;;;;;;5093033;28;20042;-73
2022/09/10 07:11:11;;;;;;;0.35;0.35;;;17.60;99.90;;;;;;5093563;28;20020;-73
2022/09/10 07:13:38;;;;;;;0.60;0.60;;;17.70;99.90;;;;;;5092264;28;20035;-75
2022/09/10 07:16:04;;;;;;;0.50;0.50;;;17.80;99.90;;;;;;5093344;28;20032;-72
2022/09/10 07:18:30;;;;;;;0.65;0.50;;;18.00;99.90;;;;;;5092777;28;20031;-73
2022/09/10 07:21:13;;;;;;;0.30;0.30;;;18.00;99.90;;;;;;5093687;28;20036;-73
2022/09/10 07:23:39;;;;;;;0.68;0.52;;;18.20;99.90;;;;;;5093925;28;20363;-72
2022/09/10 07:26:10;;;;;;;0.40;0.30;;;18.20;99.90;;;;;;5092709;28;20484;-72
2022/09/10 07:28:37;;;;;;;1.40;0.52;;;18.40;99.90;;;;;;5092873;28;20027;-72
2022/09/10 07:31:13;;;;;;;1.00;0.40;;;18.50;99.90;;;;;;5093198;28;20146;-75
2022/09/10 07:33:38;;;;;;;4.93;0.30;;;18.80;99.90;;;;;;5091947;28;20089;-74
2022/09/10 07:36:05;;;;;;;0.70;0.60;;;18.60;99.90;;;;;;5091414;28;20039;-75
2022/09/10 07:38:31;;;;;;;2.15;0.50;;;18.70;99.90;;;;;;5091887;28;20023;-75
2022/09/10 07:40:59;;;;;;;0.70;0.22;;;18.80;99.90;;;;;;5092262;28;20028;-74
2022/09/10 07:43:24;;;;;;;0.93;0.30;;;18.90;99.90;;;;;;5091741;28;20069;-74
2022/09/10 07:45:50;;;;;;;0.68;0.20;;;19.00;99.90;;;;;;5093040;28;20024;-73
2022/09/10 07:48:16;;;;;;;7.72;0.70;;;19.10;99.90;;;;;;5092935;28;20020;-74
2022/09/10 07:50:42;;;;;;;2.58;0.20;;;19.20;99.90;;;;;;5092992;28;20421;-76
2022/09/10 07:53:08;;;;;;;0.57;0.30;;;19.30;98.30;;;;;;5093107;28;20491;-75
2022/09/10 07:55:33;;;;;;;0.20;0.10;;;19.40;97.90;;;;;;5092972;28;20028;-78
2022/09/10 07:57:59;;;;;;;2.47;0.10;;;19.50;97.60;;;;;;5091227;28;20119;-75
2022/09/10 08:00:24;;;;;;;0.15;0.13;;;19.50;97.70;;;;;;5090976;28;20118;-76
2022/09/10 08:02:50;;;;;;;3.20;0.10;;;19.60;96.00;;;;;;5091238;28;20063;-75
2022/09/10 08:05:16;;;;;;;0.45;0.20;;;19.60;96.50;;;;;;5091127;28;20051;-77
2022/09/10 08:07:41;;;;;;;1.02;0.40;;;19.70;95.50;;;;;;5092822;28;20024;-77
2022/09/10 08:10:08;;;;;;;45.53;3.95;;;19.70;94.90;;;;;;5092334;28;20095;-77
2022/09/10 08:12:36;;;;;;;5.63;0.35;;;19.80;94.80;;;;;;5092860;28;20028;-77
2022/09/10 08:15:02;;;;;;;7.13;0.95;;;19.90;93.10;;;;;;5093155;28;20051;-78
2022/09/10 08:17:29;;;;;;;10.57;1.00;;;19.90;94.10;;;;;;5092364;28;20023;-77
2022/09/10 08:19:56;;;;;;;0.55;0.20;;;20.00;93.80;;;;;;5091361;28;20040;-78
2022/09/10 08:22:22;;;;;;;1.13;0.28;;;20.10;92.80;;;;;;5092575;28;20035;-78
2022/09/10 08:24:48;;;;;;;1.23;0.50;;;20.30;95.30;;;;;;5092908;28;20039;-78
2022/09/10 08:27:14;;;;;;;0.68;0.40;;;20.40;94.70;;;;;;5092552;28;20030;-76
2022/09/10 08:29:41;;;;;;;0.38;0.25;;;20.40;93.90;;;;;;5092835;28;20031;-78
2022/09/10 08:32:07;;;;;;;1.65;0.32;;;20.40;90.70;;;;;;5093298;28;20016;-78
2022/09/10 08:34:33;;;;;;;0.20;0.10;;;20.90;90.90;;;;;;5093529;28;20416;-79
2022/09/10 08:37:02;;;;;;;0.40;0.28;;;20.60;90.50;;;;;;5092514;28;20081;-79
2022/09/10 08:39:29;;;;;;;0.70;0.60;;;20.70;87.40;;;;;;5091861;28;20291;-78
2022/09/10 08:42:03;;;;;;;1.35;0.30;;;20.70;86.40;;;;;;5091325;28;20379;-79
2022/09/10 08:44:41;;;;;;;3.42;0.20;;;20.90;92.60;;;;;;5092796;28;20016;-77
2022/09/10 08:47:22;;;;;;;0.40;0.20;;;20.80;86.40;;;;;;5091399;28;20491;-77
2022/09/10 08:49:52;;;;;;;0.10;0.10;;;20.90;87.90;;;;;;5093007;28;20478;-77
2022/09/10 08:52:32;;;;;;;6.28;0.40;;;21.00;86.50;;;;;;5098011;28;20658;-78
2022/09/10 08:55:12;;;;;;;3.13;0.40;;;21.00;85.60;;;;;;5095950;28;20039;-78
2022/09/10 08:58:01;;;;;;;4.50;0.70;;;21.10;84.10;;;;;;5097248;28;20491;-80
2022/09/10 09:00:36;;;;;;;0.40;0.40;;;21.10;83.90;;;;;;5095182;28;20032;-77
2022/09/10 09:03:23;;;;;;;1.73;0.50;;;21.20;82.90;;;;;;5097304;28;20416;-77
2022/09/10 09:05:57;;;;;;;1.30;0.40;;;21.30;82.40;;;;;;5095184;28;20047;-78
2022/09/10 09:08:28;;;;;;;2.20;0.10;;;21.30;83.50;;;;;;5096135;28;20039;-78
2022/09/10 09:11:13;;;;;;;0.52;0.10;;;21.60;83.30;;;;;;5095336;28;20032;-77
2022/09/10 09:13:42;;;;;;;1.40;0.40;;;21.70;82.40;;;;;;5096349;28;20024;-80
2022/09/10 09:16:30;;;;;;;0.82;0.32;;;21.80;82.30;;;;;;5096262;28;20036;-80
2022/09/10 09:19:16;;;;;;;0.00;0.00;;;21.80;82.10;;;;;;5096226;28;20107;-76
2022/09/10 09:21:49;;;;;;;0.32;0.32;;;21.80;81.80;;;;;;5096487;28;20024;-77
2022/09/10 09:24:22;;;;;;;0.65;0.20;;;21.80;83.30;;;;;;5096131;28;20012;-78
2022/09/10 09:26:48;;;;;;;0.10;0.10;;;21.90;78.90;;;;;;5094954;28;20077;-77
2022/09/10 09:29:27;;;;;;;2.17;0.20;;;21.90;80.80;;;;;;5095967;28;20097;-77
2022/09/10 09:32:04;;;;;;;0.30;0.22;;;22.00;85.80;;;;;;5095771;28;20052;-79
2022/09/10 09:34:38;;;;;;;1.00;0.20;;;22.10;87.20;;;;;;5093898;28;20513;-79
2022/09/10 09:37:30;;;;;;;2.35;0.10;;;22.10;82.00;;;;;;5094157;28;20032;-78
2022/09/10 09:40:21;;;;;;;0.60;0.25;;;22.10;79.10;;;;;;5093798;28;20081;-78
2022/09/10 09:42:57;;;;;;;0.75;0.30;;;22.20;80.20;;;;;;5095771;28;20020;-79
2022/09/10 09:45:23;;;;;;;0.32;0.20;;;22.30;82.30;;;;;;5094542;28;20032;-78
2022/09/10 09:47:49;;;;;;;0.20;0.20;;;22.40;82.10;;;;;;5095668;28;20043;-77
2022/09/10 09:50:19;;;;;;;0.40;0.32;;;22.40;81.70;;;;;;5095256;28;20035;-78
2022/09/10 09:52:45;;;;;;;1.23;0.38;;;22.50;81.40;;;;;;5095598;28;20027;-79
2022/09/10 09:55:25;;;;;;;2.97;0.20;;;22.70;83.20;;;;;;5095204;28;20031;-79
2022/09/10 09:58:20;;;;;;;0.47;0.20;;;22.70;90.10;;;;;;5093920;28;20147;-79
2022/09/10 10:01:02;;;;;;;1.65;0.20;;;22.60;88.00;;;;;;5093289;28;20101;-78
2022/09/10 10:03:29;;;;;;;0.98;0.00;;;22.70;86.10;;;;;;5094194;28;20157;-78
2022/09/10 10:06:02;;;;;;;0.30;0.30;;;22.70;87.20;;;;;;5095216;28;20363;-78
2022/09/10 10:08:56;;;;;;;2.38;0.20;;;22.70;87.00;;;;;;5094501;28;20037;-76
2022/09/10 10:11:36;;;;;;;0.55;0.25;;;22.80;86.60;;;;;;5093628;28;20035;-77
2022/09/10 10:14:21;;;;;;;0.17;0.10;;;22.80;85.40;;;;;;5094931;28;20106;-78
2022/09/10 10:16:50;;;;;;;0.00;0.00;;;22.80;85.00;;;;;;5095638;28;20063;-78
2022/09/10 10:19:33;;;;;;;0.17;0.10;;;22.90;84.90;;;;;;5093693;28;20044;-77
2022/09/10 10:22:15;;;;;;;0.03;0.00;;;22.90;92.60;;;;;;5094385;28;20085;-78
2022/09/10 10:24:42;;;;;;;2.33;0.22;;;22.90;86.90;;;;;;5094042;28;20529;-77
2022/09/10 10:27:21;;;;;;;0.20;0.00;;;22.70;83.00;;;;;;5094277;28;21135;-77
2022/09/10 10:30:00;;;;;;;2.22;1.13;;;23.00;81.40;;;;;;5094147;28;20127;-78
2022/09/10 10:32:50;;;;;;;0.22;0.20;;;23.20;66.00;;;;;;5094396;28;20111;-77
2022/09/10 10:35:25;;;;;;;1.35;0.13;;;23.20;83.60;;;;;;5093909;28;20032;-77
2022/09/10 10:38:11;;;;;;;1.67;0.10;;;23.20;79.00;;;;;;5094267;28;20050;-77
2022/09/10 10:41:28;;;;;;;0.25;0.20;;;23.20;65.60;;;;;;5100280;28;20332;-76
2022/09/10 10:44:08;;;;;;;0.47;0.10;;;23.20;65.50;;;;;;5093233;28;20055;-78
2022/09/10 10:46:57;;;;;;;0.03;0.00;;;23.30;65.80;;;;;;5094279;28;20008;-77
2022/09/10 10:49:31;;;;;;;1.05;0.10;;;23.10;77.10;;;;;;5094078;28;20024;-78
2022/09/10 10:52:35;;;;;;;0.70;0.30;;;23.10;68.90;;;;;;5092770;28;20024;-77
2022/09/10 10:55:24;;;;;;;0.20;0.20;;;23.10;70.20;;;;;;5093439;28;20144;-79
2022/09/10 10:58:17;;;;;;;0.65;0.20;;;23.30;69.60;;;;;;5092577;28;20368;-78
2022/09/10 11:00:50;;;;;;;0.75;0.00;;;23.50;82.00;;;;;;5093835;28;20074;-80
2022/09/10 11:03:25;;;;;;;1.35;0.10;;;23.40;65.30;;;;;;5093884;28;20030;-78
2022/09/10 11:05:55;;;;;;;;;;;23.50;66.30;;;;;;5094513;28;20038;-76
2022/09/10 11:08:54;;;;;;;0.00;0.00;;;23.60;65.80;;;;;;5094044;28;19904;-77
2022/09/10 11:11:54;;;;;;;0.00;0.00;;;23.80;66.60;;;;;;5094089;28;20558;-80
2022/09/10 11:14:23;;;;;;;0.13;0.13;;;24.00;66.10;;;;;;5091810;28;20020;-78
2022/09/10 11:16:54;;;;;;;0.00;0.00;;;24.10;64.80;;;;;;5094192;28;20123;-78
2022/09/10 11:19:41;;;;;;;3.17;0.57;;;24.20;66.40;;;;;;5092173;28;20047;-79
2022/09/10 11:22:24;;;;;;;0.13;0.13;;;24.30;66.40;;;;;;5093744;28;20111;-79
2022/09/10 11:24:56;;;;;;;0.00;0.00;;;24.50;65.00;;;;;;5093748;28;20550;-78
2022/09/10 11:27:37;;;;;;;0.50;0.10;;;24.50;63.80;;;;;;5092361;28;20031;-79
2022/09/10 11:30:09;;;;;;;1.10;0.63;;;24.50;64.40;;;;;;5092361;28;20496;-79
2022/09/10 11:32:54;;;;;;;0.70;0.00;;;24.70;64.40;;;;;;5092563;28;20047;-78
2022/09/10 11:35:42;;;;;;;3.20;0.23;;;24.70;63.20;;;;;;5091316;28;20047;-80
2022/09/10 11:38:10;;;;;;;2.17;0.10;;;24.80;63.50;;;;;;5093235;28;20256;-77
2022/09/10 11:41:03;;;;;;;0.20;0.10;;;24.80;62.20;;;;;;5092976;28;20065;-78
2022/09/10 11:43:36;;;;;;;0.32;0.10;;;24.80;62.10;;;;;;5093339;28;20012;-76
2022/09/10 11:46:05;;;;;;;0.60;0.08;;;24.70;61.40;;;;;;5092262;28;20071;-79
2022/09/10 11:48:49;;;;;;;0.13;0.10;;;24.70;61.20;;;;;;5091928;28;20019;-78
2022/09/10 11:51:26;;;;;;;0.75;0.10;;;24.70;59.50;;;;;;5093441;28;20028;-82
2022/09/10 11:53:54;;;;;;;0.82;0.20;;;24.60;59.60;;;;;;5093157;28;20024;-79
2022/09/10 11:56:33;;;;;;;0.47;0.20;;;24.40;60.00;;;;;;5091990;28;20035;-77
2022/09/10 11:59:05;;;;;;;0.00;0.00;;;24.20;61.30;;;;;;5091792;28;20105;-81
2022/09/10 12:02:01;;;;;;;0.10;0.10;;;24.20;60.70;;;;;;5093325;28;20020;-80
2022/09/10 12:04:45;;;;;;;0.22;0.10;;;24.30;60.00;;;;;;5091896;28;20069;-79
2022/09/10 12:07:36;;;;;;;0.75;0.10;;;24.40;61.30;;;;;;5092898;28;20091;-80
2022/09/10 12:10:16;;;;;;;0.17;0.10;;;24.40;62.60;;;;;;5081509;28;20035;-80
2022/09/10 12:12:43;;;;;;;0.35;0.35;;;24.30;62.60;;;;;;5092875;28;20077;-78
2022/09/10 12:15:15;;;;;;;0.00;0.00;;;24.20;62.50;;;;;;5091782;28;20519;-79
2022/09/10 12:17:42;;;;;;;0.03;0.03;;;24.20;64.30;;;;;;5092971;28;20024;-78
2022/09/10 12:20:17;;;;;;;0.40;0.20;;;24.20;64.40;;;;;;5092607;28;20568;-77
2022/09/10 12:22:46;;;;;;;0.10;0.10;;;24.10;63.20;;;;;;5093169;28;20728;-78
2022/09/10 12:25:14;;;;;;;0.30;0.10;;;24.10;62.90;;;;;;5092258;28;20043;-79
2022/09/10 12:27:47;;;;;;;0.47;0.10;;;24.10;63.90;;;;;;5091377;28;20020;-79
2022/09/10 12:30:36;;;;;;;0.45;0.10;;;24.00;64.20;;;;;;5091403;28;20020;-79
2022/09/10 12:33:11;;;;;;;3.30;0.17;;;24.00;66.00;;;;;;5091915;28;20483;-80
2022/09/10 12:35:42;;;;;;;0.00;0.00;;;24.10;65.30;;;;;;5092605;28;20434;-78
2022/09/10 12:38:46;;;;;;;0.10;0.10;;;24.10;65.20;;;;;;5092572;28;20482;-79
2022/09/10 12:41:41;;;;;;;1.13;0.20;;;24.10;63.50;;;;;;5091320;28;20024;-80
2022/09/10 12:44:41;;;;;;;0.13;0.00;;;24.00;61.90;;;;;;5073344;28;20127;-77
2022/09/10 12:47:15;;;;;;;0.43;0.20;;;23.80;63.60;;;;;;5079381;28;20031;-78
2022/09/10 12:49:46;;;;;;;0.90;0.20;;;23.50;72.80;;;;;;5091307;28;20169;-78
2022/09/10 12:52:22;;;;;;;1.38;0.30;;;23.00;93.90;;;;;;5091320;28;20249;-77
2022/09/10 12:55:10;;;;;;;0.75;0.10;;;22.20;84.80;;;;;;5091966;28;20024;-76
2022/09/10 12:57:54;;;;;;;2.45;0.60;;;21.10;82.60;;;;;;5090554;28;20071;-78
2022/09/10 13:00:25;;;;;;;0.47;0.30;;;20.50;90.10;;;;;;5090965;28;20020;-78
2022/09/10 13:03:07;;;;;;;0.20;0.10;;;20.00;93.70;;;;;;5092397;28;20055;-79
2022/09/10 13:05:50;;;;;;;0.17;0.17;;;19.50;95.80;;;;;;5092256;28;20494;-78
2022/09/10 13:08:17;;;;;;;0.10;0.10;;;19.20;98.70;;;;;;5090809;28;20057;-77
2022/09/10 13:10:48;;;;;;;1.55;0.20;;;19.00;99.90;;;;;;5090777;28;20081;-77
2022/09/10 13:13:27;;;;;;;0.30;0.22;;;18.90;99.90;;;;;;5090136;28;20023;-78